createdAt,value
2023-02-04T00:01:43.153Z,2.50
2023-02-04T00:04:16.148Z,2.75
2023-02-04T00:06:45.979Z,3.20
2023-02-04T00:09:16.403Z,2.33
2023-02-04T00:11:46.136Z,3.53
2023-02-04T00:14:15.886Z,3.47
2023-02-04T00:16:45.646Z,2.87
2023-02-04T00:19:16.931Z,2.90
2023-02-04T00:21:46.704Z,2.53
2023-02-04T00:24:16.465Z,3.02
2023-02-04T00:26:46.585Z,3.42
2023-02-04T00:29:16.800Z,2.95
2023-02-04T00:31:46.672Z,2.53
2023-02-04T00:34:18.267Z,3.17
2023-02-04T00:36:48.484Z,4.23
2023-02-04T00:39:19.004Z,4.10
2023-02-04T00:41:48.746Z,3.70
2023-02-04T00:44:18.255Z,3.03
2023-02-04T00:46:48.689Z,4.13
2023-02-04T00:49:18.735Z,3.98
2023-02-04T00:51:48.538Z,3.53
2023-02-04T00:54:18.279Z,3.37
2023-02-04T00:56:48.407Z,2.80
2023-02-04T00:59:18.152Z,3.27
2023-02-04T01:01:47.901Z,3.57
2023-02-04T01:04:17.705Z,4.70
2023-02-04T01:06:47.646Z,3.83
2023-02-04T01:09:17.374Z,3.67
2023-02-04T01:11:47.399Z,3.50
2023-02-04T01:14:17.649Z,3.45
2023-02-04T01:16:47.527Z,3.73
2023-02-04T01:19:18.005Z,4.03
2023-02-04T01:21:47.912Z,3.35
2023-02-04T01:24:17.388Z,3.53
2023-02-04T01:27:05.406Z,4.10
2023-02-04T01:29:35.168Z,3.03
2023-02-04T01:32:06.557Z,4.17
2023-02-04T01:34:36.719Z,3.15
2023-02-04T01:37:06.767Z,4.23
2023-02-04T01:39:36.951Z,3.60
2023-02-04T01:42:08.465Z,3.67
2023-02-04T01:44:39.564Z,3.40
2023-02-04T01:47:09.707Z,3.23
2023-02-04T01:49:39.639Z,4.03
2023-02-04T01:52:12.477Z,3.00
2023-02-04T01:54:42.606Z,3.35
2023-02-04T01:57:15.755Z,3.80
2023-02-04T01:59:48.063Z,3.27
2023-02-04T02:02:40.797Z,3.77
2023-02-04T02:05:21.144Z,3.60
2023-02-04T02:07:53.130Z,3.50
2023-02-04T02:10:23.538Z,3.50
2023-02-04T02:12:55.300Z,3.83
2023-02-04T02:15:25.626Z,3.83
2023-02-04T02:17:57.419Z,3.30
2023-02-04T02:20:29.752Z,4.15
2023-02-04T02:23:26.798Z,3.93
2023-02-04T02:25:56.706Z,4.55
2023-02-04T02:28:26.461Z,5.30
2023-02-04T02:30:56.370Z,4.37
2023-02-04T02:33:26.328Z,3.67
2023-02-04T02:35:56.131Z,3.60
2023-02-04T02:38:26.847Z,4.42
2023-02-04T02:40:57.845Z,4.80
2023-02-04T02:43:29.535Z,4.40
2023-02-04T02:46:01.755Z,4.73
2023-02-04T02:48:31.539Z,4.00
2023-02-04T02:53:48.668Z,3.80
2023-02-04T02:56:20.229Z,4.23
2023-02-04T02:58:50.240Z,4.50
2023-02-04T03:01:20.137Z,3.97
2023-02-04T03:03:52.901Z,3.73
2023-02-04T03:06:25.774Z,4.45
2023-02-04T03:08:58.407Z,4.77
2023-02-04T03:11:29.930Z,3.87
2023-02-04T03:14:01.719Z,4.70
2023-02-04T03:16:33.082Z,4.60
2023-02-04T03:19:04.417Z,4.40
2023-02-04T03:21:35.116Z,4.20
2023-02-04T03:24:07.003Z,4.27
2023-02-04T03:26:38.640Z,4.53
2023-02-04T03:29:11.139Z,4.73
2023-02-04T03:31:41.219Z,4.90
2023-02-04T03:34:11.669Z,5.94
2023-02-04T03:36:41.155Z,6.00
2023-02-04T03:39:10.957Z,5.43
2023-02-04T03:41:40.726Z,5.73
2023-02-04T03:44:11.376Z,5.53
2023-02-04T03:46:41.142Z,5.53
2023-02-04T03:49:11.031Z,6.23
2023-02-04T03:51:40.825Z,5.87
2023-02-04T03:54:11.445Z,6.10
2023-02-04T03:56:41.215Z,5.40
2023-02-04T03:59:11.079Z,5.93
2023-02-04T04:01:40.856Z,6.30
2023-02-04T04:04:11.569Z,6.38
2023-02-04T04:06:41.330Z,6.43
2023-02-04T04:09:11.135Z,6.10
2023-02-04T04:14:08.085Z,5.97
2023-02-04T04:16:38.274Z,7.45
2023-02-04T04:19:08.124Z,6.13
2023-02-04T04:21:37.998Z,6.77
2023-02-04T04:24:09.811Z,7.17
2023-02-04T04:26:39.639Z,7.63
2023-02-04T04:29:09.172Z,6.10
2023-02-04T04:31:39.546Z,7.10
2023-02-04T04:34:10.717Z,7.70
2023-02-04T04:36:40.534Z,5.40
2023-02-04T04:39:10.851Z,7.17
2023-02-04T04:41:40.609Z,5.63
2023-02-04T04:44:11.427Z,6.28
2023-02-04T04:46:41.261Z,6.50
2023-02-04T04:49:11.351Z,5.65
2023-02-04T04:51:41.134Z,5.83
2023-02-04T04:54:11.637Z,5.80
2023-02-04T04:56:41.371Z,6.27
2023-02-04T04:59:11.213Z,6.97
2023-02-04T05:01:41.052Z,6.40
2023-02-04T05:04:11.689Z,5.44
2023-02-04T05:06:41.468Z,5.23
2023-02-04T05:09:11.620Z,5.70
2023-02-04T05:11:41.379Z,5.83
2023-02-04T05:14:11.709Z,5.98
2023-02-04T05:16:41.572Z,5.77
2023-02-04T05:19:11.141Z,5.70
2023-02-04T05:21:42.641Z,5.53
2023-02-04T05:24:12.311Z,5.83
2023-02-04T05:26:42.495Z,5.12
2023-02-04T05:29:12.321Z,5.40
2023-02-04T05:31:42.105Z,5.07
2023-02-04T05:34:13.068Z,5.60
2023-02-04T05:36:42.837Z,5.73
2023-02-04T05:39:12.664Z,6.00
2023-02-04T05:41:42.457Z,5.60
2023-02-04T05:44:12.199Z,6.57
2023-02-04T05:46:41.966Z,5.77
2023-02-04T05:49:11.885Z,5.70
2023-02-04T05:51:41.629Z,6.10
2023-02-04T05:54:11.661Z,6.00
2023-02-04T05:56:41.202Z,5.60
2023-02-04T05:59:10.925Z,5.83
2023-02-04T06:01:40.999Z,5.65
2023-02-04T06:04:11.676Z,5.72
2023-02-04T06:06:41.694Z,5.47
2023-02-04T06:09:12.254Z,6.37
2023-02-04T06:11:42.001Z,5.30
2023-02-04T06:14:11.880Z,5.50
2023-02-04T06:16:41.380Z,5.25
2023-02-04T06:19:11.150Z,5.70
2023-02-04T06:21:41.059Z,5.40
2023-02-04T06:24:11.623Z,5.78
2023-02-04T06:26:41.445Z,5.00
2023-02-04T06:29:11.219Z,5.30
2023-02-04T06:31:41.054Z,6.77
2023-02-04T06:34:11.545Z,5.60
2023-02-04T06:36:41.484Z,5.80
2023-02-04T06:39:11.272Z,6.50
2023-02-04T06:41:41.045Z,6.67
2023-02-04T06:44:11.856Z,7.16
2023-02-04T06:46:41.659Z,7.60
2023-02-04T06:49:11.482Z,7.53
2023-02-04T06:51:41.475Z,8.40
2023-02-04T06:54:11.970Z,8.20
2023-02-04T06:56:43.687Z,8.13
2023-02-04T06:59:13.192Z,8.20
2023-02-04T07:01:43.392Z,8.33
2023-02-04T07:04:13.202Z,8.60
2023-02-04T07:06:42.983Z,9.77
2023-02-04T07:09:12.753Z,9.40
2023-02-04T07:11:42.610Z,9.70
2023-02-04T07:14:14.730Z,9.67
2023-02-04T07:16:44.547Z,9.20
2023-02-04T07:19:15.045Z,9.30
2023-02-04T07:21:45.097Z,10.10
2023-02-04T07:24:14.877Z,9.40
2023-02-04T07:26:44.633Z,9.50
2023-02-04T07:29:20.701Z,9.97
2023-02-04T07:31:45.984Z,9.90
2023-02-04T07:34:16.260Z,9.63
2023-02-04T07:36:46.885Z,11.77
2023-02-04T07:39:16.987Z,9.83
2023-02-04T07:41:47.150Z,11.20
2023-02-04T07:44:17.468Z,10.13
2023-02-04T07:46:47.278Z,9.80
2023-02-04T07:49:17.106Z,10.17
2023-02-04T07:51:47.185Z,11.85
2023-02-04T07:54:17.014Z,11.47
2023-02-04T07:56:46.988Z,10.93
2023-02-04T07:59:16.845Z,11.13
2023-02-04T08:01:48.052Z,11.05
2023-02-04T08:04:17.862Z,10.72
2023-02-04T08:06:47.301Z,11.45
2023-02-04T08:09:17.183Z,9.97
2023-02-04T08:11:46.940Z,11.10
2023-02-04T08:14:16.703Z,10.15
2023-02-04T08:16:46.223Z,10.85
2023-02-04T08:19:18.068Z,10.47
2023-02-04T08:21:48.323Z,10.15
2023-02-04T08:24:18.931Z,11.23
2023-02-04T08:26:49.495Z,10.53
2023-02-04T08:29:20.697Z,10.90
2023-02-04T08:31:50.638Z,10.67
2023-02-04T08:34:23.034Z,11.37
2023-02-04T08:36:52.831Z,10.57
2023-02-04T08:39:22.790Z,10.50
2023-02-04T08:41:52.578Z,10.73
2023-02-04T08:44:22.117Z,11.33
2023-02-04T08:46:52.022Z,11.03
2023-02-04T08:49:22.015Z,10.03
2023-02-04T08:51:51.541Z,10.60
2023-02-04T08:54:21.248Z,10.27
2023-02-04T08:56:51.114Z,9.70
2023-02-04T08:59:22.525Z,10.87
2023-02-04T09:01:52.852Z,10.57
2023-02-04T09:04:24.089Z,10.67
2023-02-04T09:06:53.960Z,10.40
2023-02-04T09:09:26.114Z,10.23
2023-02-04T09:11:55.568Z,10.57
2023-02-04T09:14:24.994Z,10.70
2023-02-04T09:16:54.824Z,11.73
2023-02-04T09:19:25.262Z,11.08
2023-02-04T09:21:55.653Z,10.97
2023-02-04T09:24:25.442Z,11.57
2023-02-04T09:26:55.220Z,11.23
2023-02-04T09:29:25.054Z,11.83
2023-02-04T09:31:54.921Z,10.70
2023-02-04T09:34:24.572Z,11.48
2023-02-04T09:36:54.386Z,12.10
2023-02-04T09:39:24.191Z,10.67
2023-02-04T09:41:54.560Z,11.13
2023-02-04T09:44:27.130Z,10.60
2023-02-04T09:46:59.932Z,12.00
2023-02-04T09:49:30.234Z,11.20
2023-02-04T09:52:00.147Z,11.83
2023-02-04T09:54:29.998Z,11.50
2023-02-04T09:56:59.748Z,11.63
2023-02-04T09:59:29.663Z,10.87
2023-02-04T10:02:02.367Z,11.53
2023-02-04T10:04:32.249Z,9.73
2023-02-04T10:07:03.559Z,10.13
2023-02-04T10:09:33.463Z,10.67
2023-02-04T10:12:03.694Z,9.53
2023-02-04T10:14:33.252Z,9.85
2023-02-04T10:17:03.364Z,8.10
2023-02-04T10:19:33.388Z,9.93
2023-02-04T10:22:06.210Z,8.13
2023-02-04T10:24:35.997Z,8.80
2023-02-04T10:27:11.198Z,10.10
2023-02-04T10:29:42.241Z,8.93
2023-02-04T10:32:26.703Z,7.73
2023-02-04T10:35:01.127Z,7.13
2023-02-04T10:37:32.193Z,6.63
2023-02-04T10:40:02.176Z,5.87
2023-02-04T10:42:33.014Z,6.67
2023-02-04T10:45:02.803Z,6.83
2023-02-04T10:47:32.716Z,6.03
2023-02-04T10:50:11.136Z,6.43
2023-02-04T10:52:43.204Z,5.83
2023-02-04T10:55:18.255Z,7.07
2023-02-04T10:57:50.593Z,6.43
2023-02-04T11:00:25.364Z,5.77
2023-02-04T11:03:09.901Z,5.90
2023-02-04T11:05:39.776Z,6.57
2023-02-04T11:08:29.871Z,6.50
2023-02-04T11:11:02.550Z,5.83
2023-02-04T11:13:44.432Z,6.53
2023-02-04T11:16:20.125Z,6.37
2023-02-04T11:18:52.397Z,6.50
2023-02-04T11:21:30.641Z,6.40
2023-02-04T11:24:15.707Z,6.12
2023-02-04T11:26:51.695Z,5.40
2023-02-04T11:29:27.453Z,6.00
2023-02-04T11:32:00.344Z,5.77
2023-02-04T11:34:31.936Z,6.00
2023-02-04T11:37:12.016Z,5.30
2023-02-04T11:39:47.671Z,6.00
2023-02-04T11:42:22.936Z,6.87
2023-02-04T11:44:55.438Z,6.63
2023-02-04T11:47:27.039Z,7.43
2023-02-04T11:50:02.400Z,6.70
2023-02-04T11:52:34.025Z,5.50
2023-02-04T11:55:04.100Z,6.43
2023-02-04T11:57:42.991Z,6.80
2023-02-04T12:00:15.825Z,5.53
2023-02-04T12:02:51.324Z,5.13
2023-02-04T12:05:22.531Z,5.20
2023-02-04T12:07:52.503Z,4.90
2023-02-04T12:10:27.284Z,5.33
2023-02-04T12:13:00.723Z,5.17
2023-02-04T12:15:38.310Z,5.50
2023-02-04T12:18:16.568Z,4.83
2023-02-04T12:20:46.405Z,5.47
2023-02-04T12:23:18.790Z,5.50
2023-02-04T12:25:47.481Z,4.40
2023-02-04T12:28:17.123Z,5.27
2023-02-04T12:30:47.401Z,5.10
2023-02-04T12:33:17.802Z,4.97
2023-02-04T12:35:48.035Z,5.53
2023-02-04T12:38:19.242Z,6.07
2023-02-04T12:40:49.434Z,5.20
2023-02-04T12:43:19.289Z,5.20
2023-02-04T12:45:50.008Z,4.67
2023-02-04T12:48:20.187Z,5.40
2023-02-04T12:50:50.287Z,5.35
2023-02-04T12:53:20.093Z,5.03
2023-02-04T12:55:50.058Z,4.97
2023-02-04T12:58:19.859Z,5.72
2023-02-04T13:00:49.774Z,5.43
2023-02-04T13:03:19.545Z,5.10
2023-02-04T13:05:49.486Z,5.93
2023-02-04T13:08:19.080Z,5.55
2023-02-04T13:10:50.490Z,5.33
2023-02-04T13:13:20.801Z,6.10
2023-02-04T13:15:51.126Z,5.05
2023-02-04T13:18:20.907Z,4.92
2023-02-04T13:20:50.733Z,4.57
2023-02-04T13:23:20.205Z,5.83
2023-02-04T13:25:49.953Z,5.50
2023-02-04T13:28:19.776Z,4.45
2023-02-04T13:30:49.962Z,4.42
2023-02-04T13:33:19.745Z,5.60
2023-02-04T13:35:49.770Z,4.85
2023-02-04T13:38:19.266Z,4.73
2023-02-04T13:40:49.014Z,4.03
2023-02-04T13:43:19.444Z,5.23
2023-02-04T13:45:49.417Z,4.30
2023-02-04T13:48:18.964Z,5.17
2023-02-04T13:50:50.600Z,4.53
2023-02-04T13:53:20.476Z,4.43
2023-02-04T13:55:50.303Z,4.80
2023-02-04T13:58:20.056Z,5.05
2023-02-04T14:00:50.047Z,4.60
2023-02-04T14:03:20.962Z,4.20
2023-02-04T14:05:50.854Z,3.80
2023-02-04T14:08:21.142Z,3.90
2023-02-04T14:10:53.884Z,4.60
2023-02-04T14:13:24.032Z,4.70
2023-02-04T14:15:53.963Z,4.63
2023-02-04T14:18:24.137Z,5.22
2023-02-04T14:20:54.353Z,5.10
2023-02-04T14:23:24.358Z,4.87
2023-02-04T14:25:54.531Z,5.22
2023-02-04T14:28:24.563Z,6.83
2023-02-04T14:30:56.120Z,5.60
2023-02-04T14:33:26.123Z,4.50
2023-02-04T14:35:55.857Z,4.23
2023-02-04T14:38:27.262Z,5.12
2023-02-04T14:40:57.439Z,4.23
2023-02-04T14:43:27.610Z,3.67
2023-02-04T14:45:57.519Z,4.40
2023-02-04T14:48:27.381Z,4.58
2023-02-04T14:50:57.148Z,4.23
2023-02-04T14:53:27.008Z,4.63
2023-02-04T14:55:56.757Z,5.05
2023-02-04T14:58:27.935Z,4.30
2023-02-04T15:00:58.415Z,5.23
2023-02-04T15:03:28.259Z,4.00
2023-02-04T15:05:58.257Z,5.47
2023-02-04T15:08:28.226Z,6.00
2023-02-04T15:10:58.034Z,4.97
2023-02-04T15:13:29.187Z,4.43
2023-02-04T15:15:59.079Z,4.50
2023-02-04T15:18:29.075Z,5.23
2023-02-04T15:20:58.959Z,4.47
2023-02-04T15:23:28.787Z,4.53
2023-02-04T15:25:58.691Z,4.00
2023-02-04T15:28:29.708Z,4.80
2023-02-04T15:31:00.082Z,4.65
2023-02-04T15:33:29.918Z,4.97
2023-02-04T15:35:59.772Z,4.97
2023-02-04T15:38:29.406Z,5.05
2023-02-04T15:40:59.346Z,4.90
2023-02-04T15:43:29.163Z,4.67
2023-02-04T15:45:59.069Z,5.90
2023-02-04T15:48:28.566Z,4.93
2023-02-04T15:50:58.767Z,4.67
2023-02-04T15:53:28.878Z,4.75
2023-02-04T15:55:59.031Z,4.30
2023-02-04T15:58:28.871Z,4.40
2023-02-04T16:00:58.693Z,4.37
2023-02-04T16:03:28.622Z,4.47
2023-02-04T16:05:58.487Z,4.63
2023-02-04T16:08:28.140Z,4.23
2023-02-04T16:10:58.022Z,4.50
2023-02-04T16:13:27.844Z,5.37
2023-02-04T16:15:57.736Z,4.13
2023-02-04T16:18:27.501Z,6.53
2023-02-04T16:20:57.337Z,7.23
2023-02-04T16:23:27.266Z,14.63
2023-02-04T16:25:59.409Z,8.53
2023-02-04T16:28:29.187Z,6.53
2023-02-04T16:30:58.864Z,5.75
2023-02-04T16:33:28.691Z,5.30
2023-02-04T16:36:02.002Z,6.43
2023-02-04T16:38:32.608Z,4.60
2023-02-04T16:41:02.454Z,5.27
2023-02-04T16:43:32.272Z,4.80
2023-02-04T16:46:02.248Z,5.23
2023-02-04T16:48:31.957Z,4.97
2023-02-04T16:51:01.781Z,4.90
2023-02-04T16:53:31.535Z,5.80
2023-02-04T16:56:02.316Z,5.33
2023-02-04T16:58:32.082Z,5.30
2023-02-04T17:01:01.949Z,5.90
2023-02-04T17:03:31.766Z,6.37
2023-02-04T17:06:02.227Z,6.60
2023-02-04T17:08:31.984Z,5.27
2023-02-04T17:11:19.517Z,5.55
2023-02-04T17:16:19.597Z,5.33
2023-02-04T17:18:51.657Z,4.53
2023-02-04T17:21:22.024Z,5.35
2023-02-04T17:23:51.807Z,5.03
2023-02-04T17:26:23.366Z,5.73
2023-02-04T17:28:52.805Z,5.00
2023-02-04T17:31:23.812Z,5.23
2023-02-04T17:33:53.616Z,6.23
2023-02-04T17:36:23.266Z,5.83
2023-02-04T17:38:53.049Z,7.27
2023-02-04T17:41:23.201Z,7.73
2023-02-04T17:43:53.093Z,6.60
2023-02-04T17:46:22.945Z,6.53
2023-02-04T17:48:52.844Z,6.60
2023-02-04T17:51:22.974Z,5.28
2023-02-04T17:53:52.728Z,6.30
2023-02-04T17:56:22.253Z,5.10
2023-02-04T17:58:52.112Z,5.57
2023-02-04T18:01:25.215Z,6.70
2023-02-04T18:03:56.919Z,7.03
2023-02-04T18:06:29.195Z,7.03
2023-02-04T18:09:03.528Z,6.33
2023-02-04T18:11:36.316Z,7.17
2023-02-04T18:14:17.821Z,7.03
2023-02-04T18:16:49.700Z,6.72
2023-02-04T18:19:26.770Z,8.20
2023-02-04T18:21:58.396Z,7.50
2023-02-04T18:24:31.258Z,6.83
2023-02-04T18:27:04.608Z,7.03
2023-02-04T18:29:36.667Z,6.07
2023-02-04T18:32:11.249Z,7.37
2023-02-04T18:34:44.145Z,6.07
2023-02-04T18:37:31.769Z,6.80
2023-02-04T18:40:13.257Z,6.22
2023-02-04T18:42:45.542Z,7.03
2023-02-04T18:45:30.864Z,6.97
2023-02-04T18:48:03.768Z,7.53
2023-02-04T18:50:36.218Z,7.47
2023-02-04T18:53:15.475Z,6.77
2023-02-04T18:55:52.103Z,6.90
2023-02-04T18:58:28.754Z,7.15
2023-02-04T19:01:03.910Z,5.97
2023-02-04T19:03:39.255Z,7.73
2023-02-04T19:09:24.567Z,5.28
2023-02-04T19:11:56.315Z,6.53
2023-02-04T19:14:40.182Z,7.50
2023-02-04T19:17:19.015Z,8.83
2023-02-04T19:19:57.363Z,9.73
2023-02-04T19:22:49.687Z,8.23
2023-02-04T19:25:22.897Z,7.22
2023-02-04T19:27:55.827Z,7.65
2023-02-04T19:30:31.454Z,8.63
2023-02-04T19:33:03.925Z,9.33
2023-02-04T19:35:43.201Z,8.53
2023-02-04T19:38:32.418Z,8.75
2023-02-04T19:41:01.970Z,8.55
2023-02-04T19:43:38.296Z,8.58
2023-02-04T19:48:52.647Z,9.43
2023-02-04T19:54:24.158Z,9.83
2023-02-04T19:56:55.881Z,9.50
2023-02-04T19:59:30.278Z,9.67
2023-02-04T20:02:05.858Z,9.70
2023-02-04T20:04:41.144Z,9.13
2023-02-04T20:07:27.342Z,8.60
2023-02-04T20:10:09.050Z,9.45
2023-02-04T20:12:41.133Z,7.62
2023-02-04T20:15:19.170Z,10.00
2023-02-04T20:17:50.196Z,8.70
2023-02-04T20:20:23.471Z,8.80
2023-02-04T20:23:04.864Z,8.67
2023-02-04T20:25:46.809Z,9.17
2023-02-04T20:28:29.678Z,10.43
2023-02-04T20:31:01.042Z,13.87
2023-02-04T20:33:51.931Z,11.35
2023-02-04T20:36:40.409Z,11.65
2023-02-04T20:39:21.884Z,11.77
2023-02-04T20:41:51.754Z,10.37
2023-02-04T20:44:29.750Z,10.13
2023-02-04T20:47:14.400Z,9.87
2023-02-04T20:49:45.460Z,9.07
2023-02-04T20:52:34.367Z,10.73
2023-02-04T20:55:24.798Z,10.00
2023-02-04T20:58:13.707Z,9.23
2023-02-04T21:00:44.818Z,9.60
2023-02-04T21:03:20.413Z,8.93
2023-02-04T21:05:51.224Z,9.30
2023-02-04T21:08:37.265Z,9.10
2023-02-04T21:11:07.492Z,9.53
2023-02-04T21:13:38.680Z,9.33
2023-02-04T21:16:10.370Z,9.57
2023-02-04T21:18:40.283Z,10.03
2023-02-04T21:21:10.828Z,8.53
2023-02-04T21:23:40.722Z,9.87
2023-02-04T21:26:11.393Z,9.88
2023-02-04T21:28:41.195Z,9.20
2023-02-04T21:31:11.984Z,10.10
2023-02-04T21:33:41.771Z,10.37
2023-02-04T21:36:11.970Z,10.82
2023-02-04T21:38:41.792Z,9.83
2023-02-04T21:41:11.648Z,13.03
2023-02-04T21:43:41.495Z,11.87
2023-02-04T21:46:12.953Z,12.33
2023-02-04T21:48:42.544Z,12.30
2023-02-04T21:51:13.329Z,12.53
2023-02-04T21:53:44.241Z,12.13
2023-02-04T21:56:14.514Z,12.23
2023-02-04T21:58:44.317Z,13.37
2023-02-04T22:01:14.094Z,12.67
2023-02-04T22:03:43.924Z,13.03
2023-02-04T22:06:14.585Z,13.15
2023-02-04T22:08:44.341Z,14.70
2023-02-04T22:11:14.088Z,13.27
2023-02-04T22:13:45.711Z,13.30
2023-02-04T22:16:15.179Z,13.20
2023-02-04T22:18:45.270Z,12.23
2023-02-04T22:21:15.044Z,12.77
2023-02-04T22:23:44.802Z,12.30
2023-02-04T22:26:15.437Z,11.82
2023-02-04T22:28:45.228Z,11.63
2023-02-04T22:31:15.855Z,11.53
2023-02-04T22:33:46.036Z,11.15
2023-02-04T22:36:15.809Z,11.25
2023-02-04T22:38:45.605Z,11.67
2023-02-04T22:41:15.389Z,10.87
2023-02-04T22:43:44.936Z,11.10
2023-02-04T22:46:14.732Z,11.10
2023-02-04T22:48:44.459Z,10.87
2023-02-04T22:51:14.373Z,10.97
2023-02-04T22:53:44.142Z,11.30
2023-02-04T22:56:14.550Z,11.15
2023-02-04T22:58:44.614Z,11.27
2023-02-04T23:01:14.839Z,13.22
2023-02-04T23:03:44.975Z,11.33
2023-02-04T23:06:16.626Z,12.72
2023-02-04T23:08:48.547Z,11.70
2023-02-04T23:11:18.569Z,12.03
2023-02-04T23:13:48.375Z,11.93
2023-02-04T23:16:19.502Z,12.10
2023-02-04T23:18:49.633Z,11.25
2023-02-04T23:21:20.834Z,12.37
2023-02-04T23:23:51.656Z,12.43
2023-02-04T23:26:21.581Z,12.60
2023-02-04T23:28:51.354Z,11.37
2023-02-04T23:31:21.160Z,11.57
2023-02-04T23:33:51.254Z,11.73
2023-02-04T23:36:21.248Z,12.10
2023-02-04T23:38:51.042Z,11.83
2023-02-04T23:41:20.562Z,12.55
2023-02-04T23:43:50.406Z,13.03
2023-02-04T23:46:20.382Z,12.30
2023-02-04T23:48:52.694Z,12.57
2023-02-04T23:51:22.760Z,14.05
2023-02-04T23:53:52.980Z,12.03
2023-02-04T23:56:23.015Z,13.05
2023-02-04T23:58:55.720Z,14.60
